sensor_id;sensor_type;location;lat;lon;timestamp;pressure;altitude;pressure_sealevel;temperature;humidity
250;BME280;109;19.806;-70.704;2023-02-14T00:02:22;101411.50;;;23.46;65.31
250;BME280;109;19.806;-70.704;2023-02-14T00:04:49;101415.16;;;23.43;65.14
250;BME280;109;19.806;-70.704;2023-02-14T00:07:15;101420.50;;;23.43;64.87
250;BME280;109;19.806;-70.704;2023-02-14T00:09:42;101427.72;;;23.41;64.97
250;BME280;109;19.806;-70.704;2023-02-14T00:12:09;101429.63;;;23.38;64.67
250;BME280;109;19.806;-70.704;2023-02-14T00:14:36;101427.94;;;23.35;64.77
250;BME280;109;19.806;-70.704;2023-02-14T00:17:20;101429.94;;;23.28;64.74
250;BME280;109;19.806;-70.704;2023-02-14T00:19:47;101438.09;;;23.25;64.69
250;BME280;109;19.806;-70.704;2023-02-14T00:22:13;101436.44;;;23.21;64.98
250;BME280;109;19.806;-70.704;2023-02-14T00:24:40;101440.03;;;23.20;64.89
250;BME280;109;19.806;-70.704;2023-02-14T00:27:06;101436.66;;;23.15;64.77
250;BME280;109;19.806;-70.704;2023-02-14T00:29:33;101440.28;;;23.14;65.00
250;BME280;109;19.806;-70.704;2023-02-14T00:32:01;101444.09;;;23.07;64.57
250;BME280;109;19.806;-70.704;2023-02-14T00:34:27;101452.00;;;23.10;64.54
250;BME280;109;19.806;-70.704;2023-02-14T00:36:56;101455.59;;;23.09;64.70
250;BME280;109;19.806;-70.704;2023-02-14T00:39:24;101449.56;;;23.03;64.68
250;BME280;109;19.806;-70.704;2023-02-14T00:41:50;101453.38;;;22.95;64.76
250;BME280;109;19.806;-70.704;2023-02-14T00:44:16;101451.78;;;22.90;64.70
250;BME280;109;19.806;-70.704;2023-02-14T00:46:43;101454.69;;;22.84;64.95
250;BME280;109;19.806;-70.704;2023-02-14T00:49:10;101455.78;;;22.77;65.13
250;BME280;109;19.806;-70.704;2023-02-14T00:51:37;101456.84;;;22.73;65.21
250;BME280;109;19.806;-70.704;2023-02-14T00:54:04;101453.50;;;22.66;65.05
250;BME280;109;19.806;-70.704;2023-02-14T00:56:31;101460.47;;;22.70;65.23
250;BME280;109;19.806;-70.704;2023-02-14T00:58:57;101459.56;;;22.71;65.25
250;BME280;109;19.806;-70.704;2023-02-14T01:01:24;101455.19;;;22.69;65.31
250;BME280;109;19.806;-70.704;2023-02-14T01:03:50;101457.88;;;22.69;65.13
250;BME280;109;19.806;-70.704;2023-02-14T01:06:18;101462.56;;;22.62;65.03
250;BME280;109;19.806;-70.704;2023-02-14T01:08:44;101458.31;;;22.55;65.28
250;BME280;109;19.806;-70.704;2023-02-14T01:11:19;101461.13;;;22.50;65.47
250;BME280;109;19.806;-70.704;2023-02-14T01:13:47;101467.44;;;22.49;65.29
250;BME280;109;19.806;-70.704;2023-02-14T01:16:24;101469.91;;;22.54;65.18
250;BME280;109;19.806;-70.704;2023-02-14T01:18:54;101468.13;;;22.54;65.04
250;BME280;109;19.806;-70.704;2023-02-14T01:21:30;101471.00;;;22.48;65.27
250;BME280;109;19.806;-70.704;2023-02-14T01:23:59;101471.16;;;22.44;65.15
250;BME280;109;19.806;-70.704;2023-02-14T01:26:34;101476.34;;;22.48;65.05
250;BME280;109;19.806;-70.704;2023-02-14T01:29:01;101476.63;;;22.39;65.33
250;BME280;109;19.806;-70.704;2023-02-14T01:31:42;101482.94;;;22.37;65.45
250;BME280;109;19.806;-70.704;2023-02-14T01:34:16;101485.63;;;22.35;65.48
250;BME280;109;19.806;-70.704;2023-02-14T01:36:45;101479.16;;;22.44;65.41
250;BME280;109;19.806;-70.704;2023-02-14T01:39:18;101491.66;;;22.42;65.40
250;BME280;109;19.806;-70.704;2023-02-14T01:41:46;101496.06;;;22.43;65.11
250;BME280;109;19.806;-70.704;2023-02-14T01:46:52;101487.47;;;22.33;65.17
250;BME280;109;19.806;-70.704;2023-02-14T01:49:34;101493.53;;;22.38;64.96
250;BME280;109;19.806;-70.704;2023-02-14T01:54:55;101493.69;;;22.34;65.25
250;BME280;109;19.806;-70.704;2023-02-14T01:57:47;101496.31;;;22.35;65.25
250;BME280;109;19.806;-70.704;2023-02-14T02:00:21;101497.34;;;22.29;65.54
250;BME280;109;19.806;-70.704;2023-02-14T02:03:14;101491.16;;;22.29;65.66
250;BME280;109;19.806;-70.704;2023-02-14T02:05:45;101502.66;;;22.31;65.28
250;BME280;109;19.806;-70.704;2023-02-14T02:08:19;101499.97;;;22.31;65.17
250;BME280;109;19.806;-70.704;2023-02-14T02:10:45;101501.69;;;22.34;64.98
250;BME280;109;19.806;-70.704;2023-02-14T02:13:20;101500.81;;;22.33;65.25
250;BME280;109;19.806;-70.704;2023-02-14T02:25:23;101509.88;;;22.27;64.87
250;BME280;109;19.806;-70.704;2023-02-14T02:28:14;101503.81;;;22.22;64.92
250;BME280;109;19.806;-70.704;2023-02-14T02:41:10;101519.16;;;22.14;65.64
250;BME280;109;19.806;-70.704;2023-02-14T02:44:24;101522.78;;;22.12;65.57
250;BME280;109;19.806;-70.704;2023-02-14T02:47:32;101525.44;;;22.12;65.74
250;BME280;109;19.806;-70.704;2023-02-14T02:56:18;101530.06;;;22.07;65.72
250;BME280;109;19.806;-70.704;2023-02-14T02:59:32;101529.31;;;22.02;65.79
250;BME280;109;19.806;-70.704;2023-02-14T03:02:33;101526.81;;;21.97;65.66
250;BME280;109;19.806;-70.704;2023-02-14T03:05:35;101523.28;;;21.97;65.06
250;BME280;109;19.806;-70.704;2023-02-14T03:08:16;101528.25;;;22.09;64.94
250;BME280;109;19.806;-70.704;2023-02-14T03:10:43;101528.28;;;22.07;64.92
250;BME280;109;19.806;-70.704;2023-02-14T03:13:41;101534.66;;;22.02;65.32
250;BME280;109;19.806;-70.704;2023-02-14T03:16:32;101534.50;;;22.08;65.13
250;BME280;109;19.806;-70.704;2023-02-14T03:31:58;101525.06;;;21.96;65.20
250;BME280;109;19.806;-70.704;2023-02-14T03:35:03;101525.06;;;21.96;64.82
250;BME280;109;19.806;-70.704;2023-02-14T03:40:56;101515.38;;;21.93;64.96
250;BME280;109;19.806;-70.704;2023-02-14T03:43:43;101513.53;;;21.96;65.06
250;BME280;109;19.806;-70.704;2023-02-14T03:46:23;101512.56;;;21.98;64.87
250;BME280;109;19.806;-70.704;2023-02-14T03:49:08;101519.63;;;21.99;64.86
250;BME280;109;19.806;-70.704;2023-02-14T03:51:46;101509.16;;;21.93;64.51
250;BME280;109;19.806;-70.704;2023-02-14T03:54:28;101511.88;;;21.91;65.06
250;BME280;109;19.806;-70.704;2023-02-14T04:00:24;101504.78;;;21.90;64.77
250;BME280;109;19.806;-70.704;2023-02-14T04:03:09;101494.34;;;21.84;65.09
250;BME280;109;19.806;-70.704;2023-02-14T04:05:46;101502.53;;;21.77;65.39
250;BME280;109;19.806;-70.704;2023-02-14T04:08:27;101496.19;;;21.81;65.37
250;BME280;109;19.806;-70.704;2023-02-14T04:10:57;101493.66;;;21.76;65.24
250;BME280;109;19.806;-70.704;2023-02-14T04:13:38;101504.38;;;21.73;65.06
250;BME280;109;19.806;-70.704;2023-02-14T04:16:04;101498.31;;;21.68;65.10
250;BME280;109;19.806;-70.704;2023-02-14T04:18:45;101501.91;;;21.67;65.35
250;BME280;109;19.806;-70.704;2023-02-14T04:21:38;101497.44;;;21.68;65.37
250;BME280;109;19.806;-70.704;2023-02-14T04:24:19;101492.25;;;21.63;65.46
250;BME280;109;19.806;-70.704;2023-02-14T04:26:45;101489.66;;;21.60;65.11
250;BME280;109;19.806;-70.704;2023-02-14T04:29:32;101495.19;;;21.54;65.44
250;BME280;109;19.806;-70.704;2023-02-14T04:32:16;101491.75;;;21.49;65.35
250;BME280;109;19.806;-70.704;2023-02-14T04:34:57;101494.63;;;21.43;65.65
250;BME280;109;19.806;-70.704;2023-02-14T04:37:37;101494.34;;;21.52;64.98
250;BME280;109;19.806;-70.704;2023-02-14T04:40:05;101488.09;;;21.53;65.34
250;BME280;109;19.806;-70.704;2023-02-14T04:42:48;101491.69;;;21.52;65.10
250;BME280;109;19.806;-70.704;2023-02-14T04:45:14;101488.13;;;21.51;65.26
250;BME280;109;19.806;-70.704;2023-02-14T04:47:54;101488.13;;;21.51;65.20
250;BME280;109;19.806;-70.704;2023-02-14T04:50:21;101481.09;;;21.49;64.91
250;BME280;109;19.806;-70.704;2023-02-14T04:53:01;101483.97;;;21.43;64.83
250;BME280;109;19.806;-70.704;2023-02-14T04:55:35;101482.03;;;21.48;65.07
250;BME280;109;19.806;-70.704;2023-02-14T04:58:14;101479.47;;;21.45;64.91
250;BME280;109;19.806;-70.704;2023-02-14T05:00:41;101469.72;;;21.44;64.70
250;BME280;109;19.806;-70.704;2023-02-14T05:03:20;101470.66;;;21.43;64.53
250;BME280;109;19.806;-70.704;2023-02-14T05:05:47;101463.44;;;21.46;64.72
250;BME280;109;19.806;-70.704;2023-02-14T05:08:27;101469.78;;;21.42;64.99
250;BME280;109;19.806;-70.704;2023-02-14T05:10:54;101462.69;;;21.41;65.06
250;BME280;109;19.806;-70.704;2023-02-14T05:13:33;101459.06;;;21.44;64.72
250;BME280;109;19.806;-70.704;2023-02-14T05:16:00;101463.56;;;21.42;64.99
250;BME280;109;19.806;-70.704;2023-02-14T05:18:39;101464.41;;;21.44;64.81
250;BME280;109;19.806;-70.704;2023-02-14T05:21:06;101457.28;;;21.44;64.19
250;BME280;109;19.806;-70.704;2023-02-14T05:23:46;101455.53;;;21.43;64.72
250;BME280;109;19.806;-70.704;2023-02-14T05:26:12;101454.88;;;21.35;64.86
250;BME280;109;19.806;-70.704;2023-02-14T05:28:59;101453.81;;;21.41;64.67
250;BME280;109;19.806;-70.704;2023-02-14T05:31:38;101451.25;;;21.38;64.34
250;BME280;109;19.806;-70.704;2023-02-14T05:34:18;101453.03;;;21.37;64.52
250;BME280;109;19.806;-70.704;2023-02-14T05:36:52;101449.78;;;21.28;64.61
250;BME280;109;19.806;-70.704;2023-02-14T05:39:34;101437.38;;;21.27;64.97
250;BME280;109;19.806;-70.704;2023-02-14T05:42:01;101438.25;;;21.27;64.94
250;BME280;109;19.806;-70.704;2023-02-14T05:44:40;101443.59;;;21.26;64.68
250;BME280;109;19.806;-70.704;2023-02-14T05:47:07;101435.59;;;21.27;65.11
250;BME280;109;19.806;-70.704;2023-02-14T05:49:46;101439.13;;;21.28;64.56
250;BME280;109;19.806;-70.704;2023-02-14T05:52:13;101430.25;;;21.27;64.48
250;BME280;109;19.806;-70.704;2023-02-14T05:54:53;101429.38;;;21.27;64.71
250;BME280;109;19.806;-70.704;2023-02-14T05:57:20;101434.81;;;21.22;65.17
250;BME280;109;19.806;-70.704;2023-02-14T06:00:00;101426.84;;;21.22;64.90
250;BME280;109;19.806;-70.704;2023-02-14T06:02:39;101425.97;;;21.21;64.73
250;BME280;109;19.806;-70.704;2023-02-14T06:05:06;101419.00;;;21.17;64.78
250;BME280;109;19.806;-70.704;2023-02-14T06:07:49;101415.50;;;21.15;64.68
250;BME280;109;19.806;-70.704;2023-02-14T06:10:22;101419.00;;;21.17;64.86
250;BME280;109;19.806;-70.704;2023-02-14T06:13:02;101419.19;;;21.08;64.93
250;BME280;109;19.806;-70.704;2023-02-14T06:15:40;101416.66;;;21.05;65.00
250;BME280;109;19.806;-70.704;2023-02-14T06:18:20;101418.44;;;21.05;65.24
250;BME280;109;19.806;-70.704;2023-02-14T06:20:47;101412.41;;;20.98;65.19
250;BME280;109;19.806;-70.704;2023-02-14T06:23:27;101405.25;;;21.00;65.23
250;BME280;109;19.806;-70.704;2023-02-14T06:25:53;101402.78;;;20.94;65.20
250;BME280;109;19.806;-70.704;2023-02-14T06:28:35;101398.41;;;20.92;65.17
250;BME280;109;19.806;-70.704;2023-02-14T06:31:15;101398.22;;;20.98;65.44
250;BME280;109;19.806;-70.704;2023-02-14T06:33:54;101398.22;;;20.98;65.45
250;BME280;109;19.806;-70.704;2023-02-14T06:36:21;101397.31;;;20.99;64.95
250;BME280;109;19.806;-70.704;2023-02-14T06:39:01;101391.88;;;21.03;64.96
250;BME280;109;19.806;-70.704;2023-02-14T06:41:28;101388.38;;;21.01;64.73
250;BME280;109;19.806;-70.704;2023-02-14T06:44:09;101386.63;;;21.00;65.31
250;BME280;109;19.806;-70.704;2023-02-14T06:46:35;101377.88;;;20.95;65.40
250;BME280;109;19.806;-70.704;2023-02-14T06:49:15;101376.38;;;20.85;65.59
250;BME280;109;19.806;-70.704;2023-02-14T06:51:42;101379.63;;;20.96;65.29
250;BME280;109;19.806;-70.704;2023-02-14T06:54:21;101379.00;;;20.86;65.08
250;BME280;109;19.806;-70.704;2023-02-14T06:56:48;101387.72;;;20.93;65.00
250;BME280;109;19.806;-70.704;2023-02-14T06:59:28;101385.13;;;20.90;65.10
250;BME280;109;19.806;-70.704;2023-02-14T07:02:02;101382.63;;;20.84;65.19
250;BME280;109;19.806;-70.704;2023-02-14T07:04:41;101380.53;;;20.95;65.37
250;BME280;109;19.806;-70.704;2023-02-14T07:07:07;101382.31;;;20.95;64.87
250;BME280;109;19.806;-70.704;2023-02-14T07:09:47;101390.41;;;20.92;64.87
250;BME280;109;19.806;-70.704;2023-02-14T07:12:14;101376.16;;;20.94;65.20
250;BME280;109;19.806;-70.704;2023-02-14T07:14:54;101382.41;;;20.93;64.82
250;BME280;109;19.806;-70.704;2023-02-14T07:17:20;101382.31;;;20.95;64.74
250;BME280;109;19.806;-70.704;2023-02-14T07:20:00;101381.47;;;20.94;65.06
250;BME280;109;19.806;-70.704;2023-02-14T07:22:40;101368.97;;;20.96;64.72
250;BME280;109;19.806;-70.704;2023-02-14T07:25:07;101380.31;;;21.04;65.03
250;BME280;109;19.806;-70.704;2023-02-14T07:27:47;101370.72;;;20.97;64.62
250;BME280;109;19.806;-70.704;2023-02-14T07:30:14;101386.69;;;20.97;64.66
250;BME280;109;19.806;-70.704;2023-02-14T07:33:02;101386.81;;;20.94;65.07
250;BME280;109;19.806;-70.704;2023-02-14T07:35:35;101377.09;;;20.92;65.01
250;BME280;109;19.806;-70.704;2023-02-14T07:38:15;101377.16;;;20.90;65.38
250;BME280;109;19.806;-70.704;2023-02-14T07:40:42;101374.50;;;20.90;65.08
250;BME280;109;19.806;-70.704;2023-02-14T07:43:21;101374.41;;;20.93;64.88
250;BME280;109;19.806;-70.704;2023-02-14T07:45:48;101370.91;;;20.91;64.87
250;BME280;109;19.806;-70.704;2023-02-14T07:48:28;101378.06;;;20.89;65.33
250;BME280;109;19.806;-70.704;2023-02-14T07:50:55;101370.06;;;20.89;65.33
250;BME280;109;19.806;-70.704;2023-02-14T07:53:34;101376.25;;;20.91;64.96
250;BME280;109;19.806;-70.704;2023-02-14T07:56:01;101377.22;;;20.87;65.32
250;BME280;109;19.806;-70.704;2023-02-14T07:58:40;101380.84;;;20.84;65.19
250;BME280;109;19.806;-70.704;2023-02-14T08:01:07;101377.31;;;20.84;64.91
250;BME280;109;19.806;-70.704;2023-02-14T08:03:47;101381.78;;;20.82;65.00
250;BME280;109;19.806;-70.704;2023-02-14T08:06:18;101381.94;;;20.77;64.93
250;BME280;109;19.806;-70.704;2023-02-14T08:08:59;101387.25;;;20.77;65.00
250;BME280;109;19.806;-70.704;2023-02-14T08:11:26;101380.16;;;20.78;65.33
250;BME280;109;19.806;-70.704;2023-02-14T08:14:25;101377.59;;;20.73;65.09
250;BME280;109;19.806;-70.704;2023-02-14T08:16:52;101380.34;;;20.70;65.42
250;BME280;109;19.806;-70.704;2023-02-14T08:19:33;101381.38;;;20.65;65.30
250;BME280;109;19.806;-70.704;2023-02-14T08:21:59;101380.50;;;20.64;65.60
250;BME280;109;19.806;-70.704;2023-02-14T08:24:39;101381.38;;;20.65;65.29
250;BME280;109;19.806;-70.704;2023-02-14T08:27:06;101380.56;;;20.63;65.30
250;BME280;109;19.806;-70.704;2023-02-14T08:29:53;101382.34;;;20.62;65.50
250;BME280;109;19.806;-70.704;2023-02-14T08:32:26;101392.06;;;20.63;65.18
250;BME280;109;19.806;-70.704;2023-02-14T08:35:07;101394.84;;;20.59;65.59
250;BME280;109;19.806;-70.704;2023-02-14T08:37:47;101396.59;;;20.60;65.41
250;BME280;109;19.806;-70.704;2023-02-14T08:40:14;101396.53;;;20.61;65.48
250;BME280;109;19.806;-70.704;2023-02-14T08:42:53;101394.97;;;20.54;65.37
250;BME280;109;19.806;-70.704;2023-02-14T08:45:20;101390.53;;;20.55;65.61
250;BME280;109;19.806;-70.704;2023-02-14T08:48:07;101394.22;;;20.49;65.81
250;BME280;109;19.806;-70.704;2023-02-14T08:50:41;101392.47;;;20.48;65.41
250;BME280;109;19.806;-70.704;2023-02-14T08:53:21;101401.31;;;20.47;65.43
250;BME280;109;19.806;-70.704;2023-02-14T08:55:48;101397.75;;;20.49;65.40
250;BME280;109;19.806;-70.704;2023-02-14T08:58:27;101402.19;;;20.47;65.79
250;BME280;109;19.806;-70.704;2023-02-14T09:00:54;101403.97;;;20.48;65.62
250;BME280;109;19.806;-70.704;2023-02-14T09:03:33;101404.03;;;20.44;65.76
250;BME280;109;19.806;-70.704;2023-02-14T09:06:07;101400.59;;;20.40;65.95
250;BME280;109;19.806;-70.704;2023-02-14T09:08:49;101398.94;;;20.36;65.68
250;BME280;109;19.806;-70.704;2023-02-14T09:11:19;101401.63;;;20.35;65.91
250;BME280;109;19.806;-70.704;2023-02-14T09:13:59;101404.19;;;20.39;66.00
250;BME280;109;19.806;-70.704;2023-02-14T09:16:26;101400.69;;;20.37;66.14
250;BME280;109;19.806;-70.704;2023-02-14T09:19:06;101408.72;;;20.34;65.74
250;BME280;109;19.806;-70.704;2023-02-14T09:21:33;101406.91;;;20.36;65.70
250;BME280;109;19.806;-70.704;2023-02-14T09:24:13;101407.09;;;20.29;66.00
250;BME280;109;19.806;-70.704;2023-02-14T09:26:40;101410.72;;;20.26;66.16
250;BME280;109;19.806;-70.704;2023-02-14T09:29:27;101416.88;;;20.28;66.41
250;BME280;109;19.806;-70.704;2023-02-14T09:32:07;101419.66;;;20.22;66.19
250;BME280;109;19.806;-70.704;2023-02-14T09:34:47;101423.19;;;20.23;66.50
250;BME280;109;19.806;-70.704;2023-02-14T09:37:14;101422.56;;;20.11;66.32
250;BME280;109;19.806;-70.704;2023-02-14T09:40:16;101428.84;;;20.09;66.31
250;BME280;109;19.806;-70.704;2023-02-14T09:45:53;101432.38;;;20.09;66.44
250;BME280;109;19.806;-70.704;2023-02-14T09:48:38;101438.50;;;20.13;66.44
250;BME280;109;19.806;-70.704;2023-02-14T09:51:20;101439.34;;;20.15;66.65
250;BME280;109;19.806;-70.704;2023-02-14T09:54:08;101445.56;;;20.14;66.86
250;BME280;109;19.806;-70.704;2023-02-14T09:57:20;101443.88;;;20.10;66.56
250;BME280;109;19.806;-70.704;2023-02-14T10:02:48;101451.81;;;20.11;66.65
250;BME280;109;19.806;-70.704;2023-02-14T10:05:26;101460.63;;;20.13;66.67
250;BME280;109;19.806;-70.704;2023-02-14T10:11:11;101449.31;;;20.04;66.56
250;BME280;109;19.806;-70.704;2023-02-14T10:14:03;101472.50;;;19.97;66.81
250;BME280;109;19.806;-70.704;2023-02-14T10:16:41;101471.44;;;20.04;66.56
250;BME280;109;19.806;-70.704;2023-02-14T10:19:26;101469.84;;;19.97;67.08
250;BME280;109;19.806;-70.704;2023-02-14T10:22:06;101476.03;;;19.98;67.00
250;BME280;109;19.806;-70.704;2023-02-14T10:25:02;101482.13;;;20.03;66.85
250;BME280;109;19.806;-70.704;2023-02-14T10:27:45;101472.47;;;19.99;66.90
250;BME280;109;19.806;-70.704;2023-02-14T10:33:55;101488.50;;;19.94;66.85
250;BME280;109;19.806;-70.704;2023-02-14T10:45:37;101498.19;;;19.97;66.72
250;BME280;109;19.806;-70.704;2023-02-14T10:51:24;101505.63;;;19.78;66.78
250;BME280;109;19.806;-70.704;2023-02-14T10:56:38;101510.22;;;19.71;67.08
250;BME280;109;19.806;-70.704;2023-02-14T11:02:12;101514.78;;;19.65;67.03
250;BME280;109;19.806;-70.704;2023-02-14T11:04:39;101524.56;;;19.63;66.93
250;BME280;109;19.806;-70.704;2023-02-14T11:07:19;101526.16;;;19.71;67.02
250;BME280;109;19.806;-70.704;2023-02-14T11:09:46;101523.66;;;19.64;66.95
250;BME280;109;19.806;-70.704;2023-02-14T11:12:48;101533.19;;;19.74;67.07
250;BME280;109;19.806;-70.704;2023-02-14T11:15:35;101540.16;;;19.79;66.93
250;BME280;109;19.806;-70.704;2023-02-14T11:18:25;101543.78;;;19.75;66.89
250;BME280;109;19.806;-70.704;2023-02-14T11:23:26;101550.84;;;19.76;66.30
250;BME280;109;19.806;-70.704;2023-02-14T11:25:57;101548.31;;;19.70;66.30
250;BME280;109;19.806;-70.704;2023-02-14T11:28:25;101549.88;;;19.80;66.45
250;BME280;109;19.806;-70.704;2023-02-14T11:30:52;101552.56;;;19.79;66.53
250;BME280;109;19.806;-70.704;2023-02-14T11:33:38;101563.13;;;19.83;66.36
250;BME280;109;19.806;-70.704;2023-02-14T11:36:11;101559.66;;;19.78;66.53
250;BME280;109;19.806;-70.704;2023-02-14T11:38:40;101563.06;;;19.87;66.61
250;BME280;109;19.806;-70.704;2023-02-14T11:41:09;101570.22;;;19.83;66.24
250;BME280;109;19.806;-70.704;2023-02-14T11:43:39;101572.88;;;19.83;66.37
250;BME280;109;19.806;-70.704;2023-02-14T11:48:57;101573.47;;;19.97;66.62
250;BME280;109;19.806;-70.704;2023-02-14T11:51:29;101586.56;;;20.06;66.30
250;BME280;109;19.806;-70.704;2023-02-14T11:53:58;101591.31;;;19.91;66.42
250;BME280;109;19.806;-70.704;2023-02-14T11:56:51;101590.91;;;20.12;65.82
250;BME280;109;19.806;-70.704;2023-02-14T11:59:31;101601.50;;;20.13;66.31
250;BME280;109;19.806;-70.704;2023-02-14T12:02:01;101599.63;;;20.17;66.02
250;BME280;109;19.806;-70.704;2023-02-14T12:04:38;101598.56;;;20.26;65.89
250;BME280;109;19.806;-70.704;2023-02-14T12:07:18;101607.13;;;20.40;65.43
250;BME280;109;19.806;-70.704;2023-02-14T12:09:47;101609.59;;;20.49;65.52
250;BME280;109;19.806;-70.704;2023-02-14T12:12:18;101607.78;;;20.51;65.83
250;BME280;109;19.806;-70.704;2023-02-14T12:14:45;101611.88;;;20.67;65.57
250;BME280;109;19.806;-70.704;2023-02-14T12:17:32;101610.69;;;20.79;65.58
250;BME280;109;19.806;-70.704;2023-02-14T12:20:07;101610.47;;;20.88;65.58
250;BME280;109;19.806;-70.704;2023-02-14T12:22:47;101615.56;;;20.97;65.25
250;BME280;109;19.806;-70.704;2023-02-14T12:25:19;101625.84;;;21.12;65.26
250;BME280;109;19.806;-70.704;2023-02-14T12:28:05;101627.19;;;21.32;64.43
250;BME280;109;19.806;-70.704;2023-02-14T12:30:35;101637.38;;;21.48;64.45
250;BME280;109;19.806;-70.704;2023-02-14T12:33:01;101638.97;;;21.55;63.73
250;BME280;109;19.806;-70.704;2023-02-14T12:40:58;101643.03;;;22.03;63.69
250;BME280;109;19.806;-70.704;2023-02-14T12:43:45;101644.16;;;22.25;63.03
250;BME280;109;19.806;-70.704;2023-02-14T12:52:30;101657.72;;;22.78;61.46
250;BME280;109;19.806;-70.704;2023-02-14T12:55:44;101659.75;;;22.99;61.49
250;BME280;109;19.806;-70.704;2023-02-14T13:01:34;101668.75;;;23.23;59.99
250;BME280;109;19.806;-70.704;2023-02-14T13:07:06;101672.13;;;23.54;60.11
250;BME280;109;19.806;-70.704;2023-02-14T13:15:34;101679.41;;;23.77;58.62
250;BME280;109;19.806;-70.704;2023-02-14T13:18:37;101686.75;;;23.70;57.74
250;BME280;109;19.806;-70.704;2023-02-14T13:21:09;101698.13;;;23.77;58.37
250;BME280;109;19.806;-70.704;2023-02-14T13:23:42;101701.72;;;23.76;57.99
250;BME280;109;19.806;-70.704;2023-02-14T13:26:23;101703.13;;;23.86;58.13
250;BME280;109;19.806;-70.704;2023-02-14T13:29:00;101701.63;;;23.79;58.74
250;BME280;109;19.806;-70.704;2023-02-14T13:31:27;101702.94;;;23.92;58.82
250;BME280;109;19.806;-70.704;2023-02-14T13:34:00;101707.66;;;23.84;58.55
250;BME280;109;19.806;-70.704;2023-02-14T13:36:30;101714.56;;;23.91;58.59
250;BME280;109;19.806;-70.704;2023-02-14T13:38:58;101719.75;;;23.94;59.17
250;BME280;109;19.806;-70.704;2023-02-14T13:41:26;101725.56;;;24.07;59.38
250;BME280;109;19.806;-70.704;2023-02-14T13:43:58;101720.28;;;24.05;60.05
250;BME280;109;19.806;-70.704;2023-02-14T13:51:49;101724.47;;;24.37;60.48
250;BME280;109;19.806;-70.704;2023-02-14T13:57:33;101729.25;;;24.29;61.25
250;BME280;109;19.806;-70.704;2023-02-14T14:02:54;101733.63;;;24.55;60.66
250;BME280;109;19.806;-70.704;2023-02-14T14:10:57;101746.25;;;24.52;59.05
250;BME280;109;19.806;-70.704;2023-02-14T14:21:42;101743.94;;;24.89;57.36
250;BME280;109;19.806;-70.704;2023-02-14T14:27:31;101740.50;;;25.09;56.58
250;BME280;109;19.806;-70.704;2023-02-14T14:32:27;101742.88;;;25.38;55.66
250;BME280;109;19.806;-70.704;2023-02-14T14:37:49;101745.28;;;25.46;55.40
250;BME280;109;19.806;-70.704;2023-02-14T14:40:30;101746.97;;;25.49;55.98
250;BME280;109;19.806;-70.704;2023-02-14T14:43:12;101750.06;;;25.60;55.31
250;BME280;109;19.806;-70.704;2023-02-14T14:45:40;101737.88;;;25.73;56.26
250;BME280;109;19.806;-70.704;2023-02-14T14:48:12;101736.78;;;25.77;56.47
250;BME280;109;19.806;-70.704;2023-02-14T14:50:45;101744.25;;;25.70;56.54
250;BME280;109;19.806;-70.704;2023-02-14T14:56:34;101736.09;;;25.52;57.46
250;BME280;109;19.806;-70.704;2023-02-14T14:59:31;101741.72;;;25.45;56.80
250;BME280;109;19.806;-70.704;2023-02-14T15:02:01;101741.41;;;25.31;57.40
250;BME280;109;19.806;-70.704;2023-02-14T15:04:31;101743.16;;;25.32;57.44
250;BME280;109;19.806;-70.704;2023-02-14T15:07:19;101741.97;;;25.39;57.59
250;BME280;109;19.806;-70.704;2023-02-14T15:09:46;101743.69;;;25.19;58.13
250;BME280;109;19.806;-70.704;2023-02-14T15:12:16;101738.81;;;25.28;58.30
250;BME280;109;19.806;-70.704;2023-02-14T15:15:04;101736.47;;;25.21;58.79
250;BME280;109;19.806;-70.704;2023-02-14T15:17:35;101735.00;;;25.12;59.03
250;BME280;109;19.806;-70.704;2023-02-14T15:20:06;101735.31;;;25.26;58.91
250;BME280;109;19.806;-70.704;2023-02-14T15:22:43;101730.41;;;25.37;58.61
250;BME280;109;19.806;-70.704;2023-02-14T15:25:15;101733.78;;;25.42;58.94
250;BME280;109;19.806;-70.704;2023-02-14T15:27:43;101729.50;;;25.38;58.90
250;BME280;109;19.806;-70.704;2023-02-14T15:32:46;101724.28;;;25.35;58.31
250;BME280;109;19.806;-70.704;2023-02-14T15:35:16;101721.72;;;25.32;58.63
250;BME280;109;19.806;-70.704;2023-02-14T15:37:44;101716.38;;;25.53;57.99
250;BME280;109;19.806;-70.704;2023-02-14T15:40:23;101719.66;;;25.39;58.77
250;BME280;109;19.806;-70.704;2023-02-14T15:42:51;101709.44;;;25.49;58.55
250;BME280;109;19.806;-70.704;2023-02-14T15:50:47;101709.34;;;25.28;58.99
250;BME280;109;19.806;-70.704;2023-02-14T15:53:35;101708.81;;;25.42;58.93
250;BME280;109;19.806;-70.704;2023-02-14T15:59:01;101706.47;;;25.34;58.43
250;BME280;109;19.806;-70.704;2023-02-14T16:01:30;101708.47;;;25.28;58.97
250;BME280;109;19.806;-70.704;2023-02-14T16:04:00;101704.47;;;25.16;59.01
250;BME280;109;19.806;-70.704;2023-02-14T16:09:04;101700.75;;;25.20;59.11
250;BME280;109;19.806;-70.704;2023-02-14T16:11:34;101699.41;;;25.32;58.35
250;BME280;109;19.806;-70.704;2023-02-14T16:14:33;101690.59;;;25.28;59.07
250;BME280;109;19.806;-70.704;2023-02-14T16:17:06;101694.94;;;25.53;58.81
250;BME280;109;19.806;-70.704;2023-02-14T16:19:41;101698.97;;;25.42;57.81
250;BME280;109;19.806;-70.704;2023-02-14T16:22:22;101691.44;;;25.51;58.40
250;BME280;109;19.806;-70.704;2023-02-14T16:24:49;101692.31;;;25.51;58.32
250;BME280;109;19.806;-70.704;2023-02-14T16:27:16;101683.84;;;25.62;57.65
250;BME280;109;19.806;-70.704;2023-02-14T16:29:42;101676.88;;;25.58;57.94
250;BME280;109;19.806;-70.704;2023-02-14T16:32:12;101675.19;;;25.75;57.98
250;BME280;109;19.806;-70.704;2023-02-14T16:34:43;101676.97;;;25.75;56.73
250;BME280;109;19.806;-70.704;2023-02-14T16:37:44;101665.63;;;25.70;57.40